Time;durP1;ratioP1;P1;durP2;ratioP2;P2;SDS_P1;SDS_P2;PMS_P1;PMS_P2;Temp;Humidity;BMP_temperature;BMP_pressure;BME280_temperature;BME280_humidity;BME280_pressure;Samples;Min_cycle;Max_cycle;Signal;HPM_P1;HPM_P2
2021/08/21 00:01:37;;;;;;;;;4.00;4.00;;;;;18.94;55.62;101414.88;4973040;28;45302;-92
2021/08/21 00:04:03;;;;;;;;;4.75;4.75;;;;;18.94;55.78;101415.69;4989615;28;45325;-93
2021/08/21 00:06:28;;;;;;;;;6.00;5.50;;;;;18.88;55.77;101417.88;4989034;27;47850;-93
2021/08/21 00:08:54;;;;;;;;;4.00;4.00;;;;;18.85;55.70;101418.06;4972940;28;45345;-95
2021/08/21 00:11:19;;;;;;;;;3.67;3.67;;;;;18.82;55.95;101416.44;4999499;28;45614;-93
2021/08/21 00:13:44;;;;;;;;;3.67;3.33;;;;;18.77;55.85;101414.09;4992642;28;45353;-93
2021/08/21 00:16:10;;;;;;;;;4.00;3.67;;;;;18.77;55.50;101419.38;4980536;28;46980;-93
2021/08/21 00:18:35;;;;;;;;;5.00;5.00;;;;;18.74;55.81;101413.44;4976122;28;45323;-93
2021/08/21 00:21:01;;;;;;;;;4.00;4.00;;;;;18.72;55.71;101413.53;4976063;28;45225;-93
2021/08/21 00:23:26;;;;;;;;;5.50;4.00;;;;;18.70;56.39;101418.03;4976191;28;45550;-93
2021/08/21 00:25:52;;;;;;;;;4.00;3.00;;;;;18.66;55.91;101401.56;4975883;28;47447;-93
2021/08/21 00:28:17;;;;;;;;;4.75;3.25;;;;;18.64;56.03;101405.22;4972512;28;45479;-93
2021/08/21 00:30:42;;;;;;;;;4.25;4.25;;;;;18.61;56.21;101403.59;4972534;28;45242;-94
2021/08/21 00:33:08;;;;;;;;;4.25;4.00;;;;;18.58;56.36;101401.19;4972833;27;45381;-92
2021/08/21 00:35:33;;;;;;;;;3.00;3.00;;;;;18.54;56.67;101399.66;4982098;28;47911;-93
2021/08/21 00:37:59;;;;;;;;;4.00;3.75;;;;;18.52;56.37;101396.28;4972662;28;45495;-93
2021/08/21 00:40:24;;;;;;;;;3.00;2.50;;;;;18.49;56.20;101396.44;4972753;28;45361;-93
2021/08/21 00:42:51;;;;;;;;;3.25;3.25;;;;;18.45;56.31;101385.25;4965271;28;45243;-93
2021/08/21 00:45:17;;;;;;;;;5.00;4.00;;;;;18.45;56.67;101387.88;4976921;28;45587;-93
2021/08/21 00:47:43;;;;;;;;;6.25;4.50;;;;;18.40;56.69;101388.16;4975577;28;45166;-94
2021/08/21 00:50:08;;;;;;;;;3.50;3.00;;;;;18.39;56.49;101388.25;4991329;28;45341;-93
2021/08/21 00:52:34;;;;;;;;;4.50;4.50;;;;;18.37;56.48;101384.84;4992180;28;45399;-93
2021/08/21 00:55:00;;;;;;;;;4.00;4.00;;;;;18.36;57.07;101386.63;4955638;28;46165;-93
2021/08/21 00:57:26;;;;;;;;;3.50;3.50;;;;;18.32;57.39;101379.00;4955921;28;45316;-93
2021/08/21 00:59:52;;;;;;;;;7.50;5.25;;;;;18.28;56.89;101373.03;4972241;28;45734;-93
2021/08/21 01:02:21;;;;;;;;;6.75;5.00;;;;;18.27;57.00;101385.38;4956414;28;45519;-93
2021/08/21 01:04:51;;;;;;;;;5.50;5.50;;;;;18.26;56.81;101383.69;4984293;28;48569;-92
2021/08/21 01:07:23;;;;;;;;;5.00;4.50;;;;;18.22;57.52;101381.31;4975027;28;45288;-93
2021/08/21 01:09:48;;;;;;;;;4.00;4.00;;;;;18.20;57.30;101388.47;4975302;28;45745;-93
2021/08/21 01:12:16;;;;;;;;;4.75;4.75;;;;;18.22;57.13;101391.84;4975295;28;45359;-93
2021/08/21 01:14:43;;;;;;;;;3.50;3.50;;;;;18.20;57.55;101384.06;4976917;28;47709;-93
2021/08/21 01:17:09;;;;;;;;;4.25;4.25;;;;;18.17;57.50;101378.94;4976457;28;45490;-93
2021/08/21 01:19:42;;;;;;;;;4.00;4.00;;;;;18.13;57.36;101375.66;4975446;28;45646;-93
2021/08/21 01:22:12;;;;;;;;;5.25;5.25;;;;;18.11;57.13;101369.63;4975306;28;45347;-93
2021/08/21 01:24:45;;;;;;;;;4.25;4.00;;;;;18.10;57.44;101367.91;4974771;28;47212;-93
2021/08/21 01:27:22;;;;;;;;;4.25;4.25;;;;;18.08;57.46;101366.31;4991233;28;45358;-92
2021/08/21 01:29:48;;;;;;;;;6.00;5.00;;;;;18.08;57.80;101376.84;4991684;28;45342;-93
2021/08/21 01:32:15;;;;;;;;;4.50;4.00;;;;;18.03;57.47;101382.34;4991463;28;45349;-93
2021/08/21 01:34:41;;;;;;;;;5.25;4.00;;;;;18.02;57.81;101372.75;4974605;28;47446;-93
2021/08/21 01:37:07;;;;;;;;;8.00;5.00;;;;;17.97;57.63;101375.63;4975559;28;45419;-93
2021/08/21 01:39:32;;;;;;;;;5.75;5.75;;;;;17.97;57.59;101372.19;4991307;28;44717;-91
2021/08/21 01:41:58;;;;;;;;;4.00;4.00;;;;;17.97;57.63;101374.81;4991253;27;45352;-92
2021/08/21 01:44:23;;;;;;;;;6.00;4.50;;;;;17.93;58.17;101370.66;4991149;28;48114;-93
2021/08/21 01:46:49;;;;;;;;;5.50;5.00;;;;;17.92;58.21;101371.59;4986284;28;45537;-93
2021/08/21 01:49:16;;;;;;;;;5.00;5.00;;;;;17.92;58.09;101375.09;4974556;28;45333;-93
2021/08/21 01:51:45;;;;;;;;;6.00;4.00;;;;;17.89;57.75;101364.72;4974889;28;45232;-93
2021/08/21 01:54:19;;;;;;;;;4.00;2.50;;;;;17.86;58.20;101357.84;4974517;28;47488;-92
2021/08/21 01:56:52;;;;;;;;;4.25;4.25;;;;;17.86;58.12;101362.25;4975884;28;45124;-93
2021/08/21 01:59:30;;;;;;;;;6.00;6.00;;;;;17.84;58.30;101364.97;4974935;28;45310;-93
2021/08/21 02:01:56;;;;;;;;;5.00;5.00;;;;;17.84;58.45;101362.34;4974592;28;45299;-93
2021/08/21 02:04:22;;;;;;;;;4.75;3.50;;;;;17.84;58.61;101358.84;4974934;28;47129;-93
2021/08/21 02:06:48;;;;;;;;;6.00;5.00;;;;;17.85;58.27;101360.53;4974535;28;44841;-93
2021/08/21 02:09:17;;;;;;;;;3.00;3.00;;;;;17.84;58.59;101354.44;4974734;28;45376;-93
2021/08/21 02:11:43;;;;;;;;;3.25;3.25;;;;;17.84;58.43;101356.22;4991442;28;45563;-94
2021/08/21 02:14:09;;;;;;;;;4.50;4.00;;;;;17.82;58.24;101351.03;4990942;28;47279;-92
2021/08/21 02:16:34;;;;;;;;;4.50;4.50;;;;;17.81;58.07;101359.06;4990804;28;45340;-93
2021/08/21 02:19:00;;;;;;;;;6.50;5.50;;;;;17.83;58.11;101357.16;4989249;28;45284;-92
2021/08/21 02:21:27;;;;;;;;;6.00;5.50;;;;;17.79;58.25;101348.59;4990856;28;45412;-93
2021/08/21 02:23:57;;;;;;;;;5.00;4.50;;;;;17.82;58.79;101345.78;4990555;28;48347;-93
2021/08/21 02:26:22;;;;;;;;;4.75;4.75;;;;;17.77;58.42;101332.03;4974737;28;44790;-92
2021/08/21 02:28:48;;;;;;;;;6.50;5.75;;;;;17.78;58.82;101339.00;4973661;28;45405;-92
2021/08/21 02:31:13;;;;;;;;;6.00;5.00;;;;;17.78;58.95;101341.66;4990885;28;45284;-93
2021/08/21 02:33:39;;;;;;;;;4.50;4.50;;;;;17.80;58.94;101342.41;4975388;28;45940;-91
2021/08/21 02:36:05;;;;;;;;;4.75;4.75;;;;;17.81;59.06;101351.16;4990527;28;45480;-93
2021/08/21 02:38:31;;;;;;;;;4.50;4.50;;;;;17.78;59.17;101349.53;4990842;28;45389;-92
2021/08/21 02:40:57;;;;;;;;;5.75;3.75;;;;;17.83;59.17;101347.47;4981135;28;44827;-92
2021/08/21 02:43:22;;;;;;;;;5.00;5.00;;;;;17.84;59.16;101343.06;4974009;28;47120;-92
2021/08/21 02:45:49;;;;;;;;;5.00;5.00;;;;;17.84;59.55;101346.56;4974257;28;45305;-92
2021/08/21 02:48:14;;;;;;;;;5.25;4.00;;;;;17.84;58.89;101332.53;4974170;28;45471;-93
2021/08/21 02:50:40;;;;;;;;;4.25;4.25;;;;;17.84;59.42;101330.75;4973761;28;45416;-93
2021/08/21 02:53:05;;;;;;;;;5.00;5.00;;;;;17.87;59.12;101335.00;4973843;28;47392;-93
2021/08/21 02:55:30;;;;;;;;;4.25;4.25;;;;;17.90;58.92;101342.72;4973554;28;45720;-93
2021/08/21 02:57:56;;;;;;;;;5.00;5.00;;;;;17.89;58.69;101341.00;4975002;28;45262;-92
2021/08/21 03:00:21;;;;;;;;;5.00;5.00;;;;;17.90;58.68;101340.94;4974211;28;45240;-93
2021/08/21 03:02:47;;;;;;;;;3.50;3.50;;;;;17.88;58.98;101334.88;4975297;28;48341;-93
2021/08/21 03:05:12;;;;;;;;;4.00;4.00;;;;;17.89;58.81;101338.38;4973750;28;45436;-93
2021/08/21 03:07:38;;;;;;;;;4.00;4.00;;;;;17.89;59.10;101333.13;4973826;28;45306;-93
2021/08/21 03:10:05;;;;;;;;;4.25;4.25;;;;;17.92;59.37;101340.00;4975163;28;45115;-92
2021/08/21 03:12:31;;;;;;;;;5.00;4.50;;;;;17.89;59.35;101328.72;4970137;28;47410;-92
2021/08/21 03:14:57;;;;;;;;;4.25;4.00;;;;;17.89;59.58;101325.22;4972660;28;44905;-92
2021/08/21 03:17:22;;;;;;;;;6.50;5.75;;;;;17.90;59.10;101326.91;4973338;28;45348;-93
2021/08/21 03:19:48;;;;;;;;;3.25;3.25;;;;;17.89;59.40;101328.72;4973572;28;45456;-93
2021/08/21 03:22:13;;;;;;;;;4.75;4.75;;;;;17.88;59.24;101321.72;4975526;28;47281;-93
2021/08/21 03:24:39;;;;;;;;;6.00;4.00;;;;;17.89;59.07;101325.22;4976674;28;45345;-93
2021/08/21 03:27:04;;;;;;;;;6.25;5.25;;;;;17.88;59.23;101329.63;4977609;28;45337;-94
2021/08/21 03:29:30;;;;;;;;;5.00;5.00;;;;;17.88;59.42;101329.63;4993075;28;45242;-92
2021/08/21 03:31:55;;;;;;;;;5.00;4.25;;;;;17.89;59.76;101330.47;4992507;28;48326;-92
2021/08/21 03:34:24;;;;;;;;;4.75;4.75;;;;;17.88;59.24;101315.63;4983447;28;45277;-93
2021/08/21 03:36:51;;;;;;;;;4.00;4.00;;;;;17.87;58.94;101314.78;4976412;28;45341;-93
2021/08/21 03:39:16;;;;;;;;;4.00;4.00;;;;;17.89;59.29;101322.59;4976503;27;45412;-92
2021/08/21 03:41:42;;;;;;;;;6.75;5.25;;;;;17.90;59.40;101327.78;4976061;28;46759;-93
2021/08/21 03:44:07;;;;;;;;;4.25;4.25;;;;;17.89;59.38;101325.22;4976152;28;45446;-92
2021/08/21 03:46:33;;;;;;;;;4.00;4.00;;;;;17.87;59.37;101324.47;4976639;28;45375;-93
2021/08/21 03:49:01;;;;;;;;;6.75;4.50;;;;;17.83;59.19;101320.31;4976536;28;45695;-93
2021/08/21 03:51:26;;;;;;;;;4.00;4.00;;;;;17.84;59.22;101316.72;4976151;28;47218;-93
2021/08/21 03:53:52;;;;;;;;;6.50;5.00;;;;;17.82;59.20;101318.63;4976042;28;45316;-93
2021/08/21 03:56:17;;;;;;;;;4.00;4.00;;;;;17.81;59.03;101314.31;4976150;28;45592;-92
2021/08/21 03:58:43;;;;;;;;;5.00;4.75;;;;;17.77;58.92;101310.97;4992835;28;45517;-92
2021/08/21 04:01:08;;;;;;;;;5.00;3.50;;;;;17.73;59.29;101304.22;4975959;28;47038;-93
2021/08/21 04:03:35;;;;;;;;;3.75;3.75;;;;;17.71;59.15;101300.78;4992609;28;45769;-92
2021/08/21 04:06:00;;;;;;;;;4.50;4.50;;;;;17.68;59.37;101311.50;4984490;28;45352;-92
2021/08/21 04:08:26;;;;;;;;;5.50;5.00;;;;;17.65;59.41;101301.16;4975950;28;45531;-93
2021/08/21 04:10:51;;;;;;;;;5.75;5.00;;;;;17.63;59.49;101309.97;4975325;28;48389;-93
2021/08/21 04:13:16;;;;;;;;;5.00;4.00;;;;;17.60;59.14;101304.06;4975618;28;45087;-93
2021/08/21 04:15:42;;;;;;;;;4.50;4.50;;;;;17.58;59.57;101305.91;4975824;28;44932;-93
2021/08/21 04:18:07;;;;;;;;;4.50;4.50;;;;;17.54;59.16;101304.41;4992559;28;45407;-93
2021/08/21 04:20:33;;;;;;;;;4.00;4.00;;;;;17.50;59.42;101301.94;4992246;28;46897;-93
2021/08/21 04:22:58;;;;;;;;;5.25;5.25;;;;;17.47;59.50;101298.63;4992084;28;45456;-92
2021/08/21 04:25:24;;;;;;;;;4.75;4.00;;;;;17.46;59.07;101299.56;4991952;28;45741;-94
2021/08/21 04:27:52;;;;;;;;;4.25;4.25;;;;;17.43;59.44;101297.97;4980521;28;45262;-92
2021/08/21 04:30:17;;;;;;;;;4.25;4.00;;;;;17.39;59.94;101292.97;4975719;28;47754;-93
2021/08/21 04:32:43;;;;;;;;;4.00;4.00;;;;;17.36;59.72;101297.44;4975594;28;45271;-92
2021/08/21 04:35:09;;;;;;;;;5.75;4.25;;;;;17.32;59.79;101288.03;4975757;27;45310;-93
2021/08/21 04:37:34;;;;;;;;;4.00;4.00;;;;;17.30;59.79;101289.91;4975770;27;45573;-93
2021/08/21 04:40:00;;;;;;;;;5.00;3.50;;;;;17.28;59.77;101286.53;4992057;28;47043;-93
2021/08/21 04:42:25;;;;;;;;;5.50;5.50;;;;;17.22;59.71;101287.69;4992087;28;45331;-93
2021/08/21 04:44:50;;;;;;;;;5.00;5.00;;;;;17.20;59.53;101286.94;4992281;28;45647;-92
2021/08/21 04:47:16;;;;;;;;;6.25;5.00;;;;;17.18;59.88;101294.03;4975787;28;45360;-93
2021/08/21 04:49:41;;;;;;;;;4.00;4.00;;;;;17.13;59.86;101280.31;4976257;28;47008;-93
2021/08/21 04:52:07;;;;;;;;;5.25;5.00;;;;;17.14;59.83;101286.41;4975493;28;45346;-92
2021/08/21 04:54:32;;;;;;;;;5.25;4.25;;;;;17.11;60.14;101286.59;4975669;28;45320;-92
2021/08/21 04:56:57;;;;;;;;;6.00;4.50;;;;;17.05;59.98;101288.63;4976884;28;45442;-93
2021/08/21 04:59:23;;;;;;;;;8.25;6.25;;;;;17.03;59.57;101290.47;4974934;28;47523;-93
2021/08/21 05:01:48;;;;;;;;;6.00;5.25;;;;;17.03;60.16;101292.28;4975166;28;45448;-92
2021/08/21 05:04:14;;;;;;;;;6.50;5.00;;;;;17.01;60.21;101284.44;4975373;28;45297;-93
2021/08/21 05:06:39;;;;;;;;;3.75;3.75;;;;;17.02;60.24;101293.16;4975723;28;45436;-93
2021/08/21 05:09:05;;;;;;;;;5.00;4.00;;;;;17.03;59.91;101297.53;4975086;28;47623;-92
2021/08/21 05:11:30;;;;;;;;;5.50;5.00;;;;;17.00;60.23;101293.25;4974944;28;45287;-93
2021/08/21 05:13:56;;;;;;;;;3.50;3.50;;;;;16.98;60.76;101291.66;4975504;28;45231;-92
2021/08/21 05:16:21;;;;;;;;;5.25;5.25;;;;;16.97;60.65;101296.03;4976861;28;45263;-92
2021/08/21 05:18:50;;;;;;;;;5.00;5.00;;;;;17.00;60.58;101306.41;4974967;28;47217;-92
2021/08/21 05:21:47;;;;;;;;;5.75;5.00;;;;;16.99;60.43;101303.84;4974606;28;45462;-93
2021/08/21 05:24:02;;;;;;;;;4.50;4.50;;;;;17.01;60.74;101304.63;4975831;28;45528;-93
2021/08/21 05:26:28;;;;;;;;;4.25;3.25;;;;;16.98;61.04;101305.63;4975015;28;45536;-92
2021/08/21 05:28:55;;;;;;;;;5.00;4.50;;;;;17.00;60.68;101306.41;4974911;28;47191;-92
2021/08/21 05:31:22;;;;;;;;;5.00;5.00;;;;;17.00;61.09;101305.56;4974991;28;45713;-93
2021/08/21 05:33:48;;;;;;;;;4.75;4.25;;;;;17.02;61.05;101312.44;4975186;28;45317;-92
2021/08/21 05:36:13;;;;;;;;;5.25;5.25;;;;;17.02;61.42;101315.06;4975592;28;45299;-93
2021/08/21 05:38:38;;;;;;;;;5.50;5.00;;;;;17.02;61.08;101309.78;4974682;28;47885;-93
2021/08/21 05:41:04;;;;;;;;;6.00;5.00;;;;;17.02;61.17;101311.56;4974416;28;45890;-92
2021/08/21 05:43:29;;;;;;;;;4.75;4.00;;;;;17.05;60.95;101319.34;4991422;28;45331;-92
2021/08/21 05:45:55;;;;;;;;;7.25;5.00;;;;;17.06;60.96;101316.63;4991497;28;45423;-93
2021/08/21 05:48:20;;;;;;;;;3.00;3.00;;;;;17.11;61.12;101319.00;4990930;28;47245;-93
2021/08/21 05:50:46;;;;;;;;;5.50;5.00;;;;;17.15;61.27;101328.41;4990922;28;46299;-92
2021/08/21 05:53:11;;;;;;;;;6.75;5.25;;;;;17.11;61.42;101319.00;4974651;28;45374;-92
2021/08/21 05:55:37;;;;;;;;;4.25;4.25;;;;;17.16;61.34;101326.63;4975133;27;45321;-93
2021/08/21 05:58:02;;;;;;;;;6.00;6.00;;;;;17.21;61.27;101325.44;4974688;28;47483;-93
2021/08/21 06:00:28;;;;;;;;;5.25;5.25;;;;;17.22;61.61;101323.69;4974958;28;45210;-93
2021/08/21 06:02:54;;;;;;;;;5.00;5.00;;;;;17.26;61.73;101332.25;4983639;28;45530;-91
2021/08/21 06:05:19;;;;;;;;;5.75;5.25;;;;;17.29;61.80;101324.16;4974458;28;45234;-93
2021/08/21 06:07:44;;;;;;;;;6.00;5.25;;;;;17.35;61.74;101327.31;4965264;28;47196;-93
2021/08/21 06:10:10;;;;;;;;;9.00;5.75;;;;;17.39;62.05;101335.06;4971440;28;45729;-93
2021/08/21 06:12:36;;;;;;;;;5.25;5.25;;;;;17.47;61.64;101331.06;4972740;28;45314;-93
2021/08/21 06:15:02;;;;;;;;;4.00;4.00;;;;;17.50;61.27;101332.69;4967916;28;45325;-93
2021/08/21 06:17:27;;;;;;;;;10.50;7.00;;;;;17.55;61.84;101327.97;4974401;28;47201;-92
2021/08/21 06:19:52;;;;;;;;;7.25;5.75;;;;;17.63;61.48;101335.44;4973942;28;45598;-93
2021/08/21 06:22:18;;;;;;;;;7.00;6.75;;;;;17.65;61.93;101328.31;4990704;27;45395;-92
2021/08/21 06:24:43;;;;;;;;;4.25;4.25;;;;;17.71;61.69;101338.50;4974742;27;45196;-92
2021/08/21 06:27:09;;;;;;;;;7.00;6.25;;;;;17.80;61.55;101334.50;4990201;28;47286;-93
2021/08/21 06:29:35;;;;;;;;;7.75;6.50;;;;;17.83;61.24;101325.56;4956008;28;45421;-93
2021/08/21 06:32:05;;;;;;;;;6.75;6.00;;;;;17.88;61.85;101331.44;4982910;28;45393;-92
2021/08/21 06:34:31;;;;;;;;;7.25;6.00;;;;;17.90;61.59;101326.91;4973762;28;45661;-93
2021/08/21 06:37:00;;;;;;;;;8.50;5.75;;;;;17.95;61.34;101324.88;5059439;27;46926;-94
2021/08/21 06:39:26;;;;;;;;;5.75;5.75;;;;;17.98;61.11;101324.69;4985246;28;45339;-93
2021/08/21 06:41:52;;;;;;;;;6.00;5.00;;;;;18.07;61.11;101327.75;4977258;28;45331;-92
2021/08/21 06:44:17;;;;;;;;;6.75;6.75;;;;;18.12;61.18;101334.47;4982425;28;45432;-93
2021/08/21 06:46:43;;;;;;;;;6.00;5.00;;;;;18.19;61.17;101324.38;4960384;28;47147;-92
2021/08/21 06:49:08;;;;;;;;;7.75;7.75;;;;;18.25;61.00;101317.91;4972157;28;45419;-94
2021/08/21 06:51:34;;;;;;;;;6.00;6.00;;;;;18.33;61.10;101317.47;4980024;28;45598;-92
2021/08/21 06:53:59;;;;;;;;;6.00;6.00;;;;;18.34;60.94;101306.84;4958016;28;44839;-93
2021/08/21 06:56:24;;;;;;;;;6.50;6.00;;;;;18.40;60.65;101311.75;4957247;28;47634;-93
2021/08/21 06:58:50;;;;;;;;;7.00;6.00;;;;;18.46;60.55;101313.16;4969929;28;45516;-93
2021/08/21 07:01:18;;;;;;;;;5.00;4.25;;;;;18.52;60.46;101319.84;5039581;28;45275;-94
2021/08/21 07:03:43;;;;;;;;;5.75;4.75;;;;;18.53;60.71;101309.22;4993758;27;45424;-94
2021/08/21 07:06:09;;;;;;;;;5.00;5.00;;;;;18.55;60.70;101302.06;4982773;28;47440;-93
2021/08/21 07:08:34;;;;;;;;;5.75;5.75;;;;;18.67;60.54;101296.97;4966242;28;45754;-92
2021/08/21 07:11:01;;;;;;;;;6.00;4.25;;;;;18.70;60.66;101297.63;4989536;28;45391;-92
2021/08/21 07:13:26;;;;;;;;;5.50;5.25;;;;;18.75;60.52;101288.59;4981721;28;45702;-92
2021/08/21 07:15:52;;;;;;;;;5.00;4.75;;;;;18.82;60.17;101298.66;4961685;28;48025;-92
2021/08/21 07:18:17;;;;;;;;;6.00;5.00;;;;;18.88;60.12;101294.78;4974118;28;45423;-93
2021/08/21 07:20:43;;;;;;;;;5.25;4.75;;;;;18.94;60.38;101297.03;4976458;28;45494;-92
2021/08/21 07:23:08;;;;;;;;;6.25;3.75;;;;;19.02;60.33;101306.28;4993250;28;45402;-92
2021/08/21 07:25:34;;;;;;;;;5.00;5.00;;;;;19.07;60.17;101306.88;4979664;28;46908;-92
2021/08/21 07:28:00;;;;;;;;;5.00;5.00;;;;;19.15;60.41;101314.25;4966274;27;45346;-93
2021/08/21 07:30:25;;;;;;;;;6.00;4.50;;;;;19.20;59.98;101314.81;4958349;28;44659;-92
2021/08/21 07:32:51;;;;;;;;;6.00;5.25;;;;;19.27;59.68;101315.28;4969863;28;44950;-93
2021/08/21 07:35:16;;;;;;;;;7.75;6.25;;;;;19.31;59.75;101314.97;4956726;28;47192;-92
2021/08/21 07:37:42;;;;;;;;;6.00;5.25;;;;;19.37;59.62;101321.69;4972867;28;45458;-93
2021/08/21 07:40:08;;;;;;;;;6.00;6.00;;;;;19.41;59.81;101317.91;4970520;28;45279;-92
2021/08/21 07:42:34;;;;;;;;;8.00;6.25;;;;;19.49;59.59;101331.44;4959361;28;45420;-93
2021/08/21 07:44:59;;;;;;;;;5.00;5.00;;;;;19.54;59.40;101328.53;4975956;28;47867;-92
2021/08/21 07:47:25;;;;;;;;;5.50;5.50;;;;;19.59;59.67;101329.03;4967388;28;45528;-92
2021/08/21 07:49:50;;;;;;;;;6.75;6.00;;;;;19.63;59.23;101327.06;4991073;28;45749;-93
2021/08/21 07:52:15;;;;;;;;;7.25;5.25;;;;;19.71;59.15;101326.53;4974289;28;45373;-92
2021/08/21 07:54:41;;;;;;;;;8.25;7.00;;;;;19.79;58.83;101328.69;4972058;28;47106;-93
2021/08/21 07:57:06;;;;;;;;;6.50;6.50;;;;;19.83;59.08;101324.91;4977849;28;45301;-93
2021/08/21 07:59:32;;;;;;;;;7.00;7.00;;;;;19.87;59.26;101310.56;4992039;28;45392;-93
2021/08/21 08:01:59;;;;;;;;;6.75;5.50;;;;;19.95;59.14;101313.50;4989850;27;45407;-93
2021/08/21 08:04:25;;;;;;;;;8.00;8.00;;;;;20.01;59.10;101310.50;4972957;28;47331;-94
2021/08/21 08:06:50;;;;;;;;;6.25;6.00;;;;;20.11;58.89;101313.38;4966512;28;45263;-93
2021/08/21 08:09:16;;;;;;;;;8.00;6.25;;;;;20.22;58.49;101317.91;4974120;28;45465;-93
2021/08/21 08:11:41;;;;;;;;;7.75;7.75;;;;;20.29;58.14;101313.91;4956996;28;44785;-93
2021/08/21 08:14:06;;;;;;;;;5.50;5.50;;;;;20.36;58.20;101311.69;4958916;28;47618;-93
2021/08/21 08:16:32;;;;;;;;;9.00;8.50;;;;;20.41;57.92;101314.03;4957047;28;45290;-94
2021/08/21 08:18:57;;;;;;;;;9.00;7.75;;;;;20.47;57.56;101315.41;4972963;28;45386;-93
2021/08/21 08:21:23;;;;;;;;;6.25;6.00;;;;;20.49;57.48;101309.06;4976446;28;45376;-93
2021/08/21 08:23:49;;;;;;;;;6.75;5.75;;;;;20.56;57.71;101320.88;4980652;27;47185;-93
2021/08/21 08:26:15;;;;;;;;;6.50;5.50;;;;;20.67;57.99;101327.22;4994011;28;45666;-93
2021/08/21 08:28:40;;;;;;;;;7.50;7.50;;;;;20.74;57.43;101320.56;4978281;28;44871;-94
2021/08/21 08:31:07;;;;;;;;;8.00;6.50;;;;;20.78;57.24;101314.09;4977471;28;45423;-93
2021/08/21 08:33:34;;;;;;;;;6.25;5.50;;;;;20.83;57.29;101319.91;4976034;28;47090;-92
2021/08/21 08:36:00;;;;;;;;;6.75;6.75;;;;;20.90;57.11;101308.94;4974207;28;45522;-94
2021/08/21 08:38:26;;;;;;;;;8.50;7.00;;;;;20.98;56.98;101305.75;4985696;28;45730;-93
2021/08/21 08:40:51;;;;;;;;;7.25;6.00;;;;;21.05;57.27;101310.50;4974545;28;46043;-93
2021/08/21 08:43:20;;;;;;;;;8.00;6.50;;;;;21.15;56.92;101308.03;4971651;28;47167;-93
2021/08/21 08:45:46;;;;;;;;;6.25;6.25;;;;;21.23;56.76;101296.88;4982769;28;45829;-93
2021/08/21 08:48:18;;;;;;;;;8.00;5.75;;;;;21.38;56.74;101307.31;4972231;28;44878;-93
2021/08/21 08:50:43;;;;;;;;;6.50;6.50;;;;;21.53;57.46;101305.34;4978363;28;45423;-94
2021/08/21 08:53:09;;;;;;;;;10.00;8.25;;;;;21.63;56.61;101301.88;4971045;28;47069;-93
2021/08/21 08:55:34;;;;;;;;;7.75;6.25;;;;;21.81;56.75;101309.47;4972411;28;45458;-94
2021/08/21 08:58:00;;;;;;;;;6.25;6.25;;;;;21.89;56.91;101301.78;4958210;28;45457;-93
2021/08/21 09:00:28;;;;;;;;;3.00;2.50;;;;;22.03;56.80;101310.47;4962215;28;45449;-92
2021/08/21 09:02:58;;;;;;;;;7.00;5.33;;;;;22.19;56.74;101320.78;4975238;28;47343;-93
2021/08/21 09:05:26;;;;;;;;;6.25;6.25;;;;;22.29;56.21;101313.81;4975974;28;45274;-93
2021/08/21 09:07:54;;;;;;;;;6.25;6.00;;;;;22.45;56.26;101315.25;4970601;28;45501;-93
2021/08/21 09:10:30;;;;;;;;;7.00;7.00;;;;;22.54;55.04;101322.53;4973233;28;45533;-93
2021/08/21 09:13:09;;;;;;;;;7.33;6.00;;;;;22.63;55.08;101314.84;5036549;28;48513;-93
2021/08/21 09:15:36;;;;;;;;;6.50;5.75;;;;;22.66;55.19;101319.88;4991661;28;45449;-93
2021/08/21 09:18:06;;;;;;;;;5.25;3.75;;;;;22.78;55.13;101323.38;4987790;28;45203;-94
2021/08/21 09:20:52;;;;;;;;;5.50;5.25;;;;;22.93;55.06;101332.78;4956954;28;45245;-93
2021/08/21 09:23:25;;;;;;;;;6.00;6.00;;;;;23.04;54.61;101325.75;4968715;28;47166;-93
2021/08/21 09:25:56;;;;;;;;;5.00;5.00;;;;;23.12;54.18;101317.19;4977139;28;46039;-93
2021/08/21 09:28:25;;;;;;;;;5.75;5.50;;;;;23.22;54.02;101315.47;4962152;28;45545;-94
2021/08/21 09:31:07;;;;;;;;;6.00;6.00;;;;;23.41;53.86;101316.69;4955622;28;45317;-92
2021/08/21 09:33:34;;;;;;;;;6.00;5.00;;;;;23.55;54.45;101311.06;4962170;28;47629;-93
2021/08/21 09:36:29;;;;;;;;;5.67;5.00;;;;;23.68;53.57;101312.69;4992393;27;45331;-94
2021/08/21 09:38:54;;;;;;;;;4.00;3.33;;;;;23.84;53.41;101313.09;4974821;28;45218;-93
2021/08/21 09:41:20;;;;;;;;;7.00;5.67;;;;;23.97;53.44;101310.25;4991410;28;45527;-94
2021/08/21 09:43:45;;;;;;;;;9.33;5.00;;;;;24.07;53.26;101307.66;4975565;28;46938;-93
2021/08/21 09:46:15;;;;;;;;;7.33;6.33;;;;;24.22;52.86;101310.88;4973220;28;45894;-93
2021/08/21 09:49:07;;;;;;;;;5.00;5.00;;;;;24.33;52.72;101309.94;4958703;28;45490;-93
2021/08/21 09:51:47;;;;;;;;;6.00;5.67;;;;;24.44;51.84;101300.19;4959817;28;45519;-92
2021/08/21 09:54:21;;;;;;;;;6.00;6.00;;;;;24.57;51.96;101298.16;4964414;28;47465;-92
2021/08/21 09:56:55;;;;;;;;;4.33;4.33;;;;;24.69;51.99;101291.78;4969233;28;45713;-93
2021/08/21 09:59:42;;;;;;;;;7.33;7.00;;;;;24.75;51.40;101289.53;4973980;28;45442;-94
2021/08/21 10:02:14;;;;;;;;;6.00;5.00;;;;;24.81;51.15;101281.88;4974611;28;45454;-94
2021/08/21 10:04:43;;;;;;;;;5.67;4.00;;;;;24.90;51.34;101282.88;4973084;28;47490;-93
2021/08/21 10:07:13;;;;;;;;;8.00;5.33;;;;;25.06;51.41;101278.84;4963575;28;45414;-93
2021/08/21 10:09:40;;;;;;;;;5.33;5.33;;;;;25.25;51.28;101285.16;4974409;28;45425;-93
2021/08/21 10:12:07;;;;;;;;;4.00;4.00;;;;;25.44;51.39;101274.53;4989459;28;45411;-93
2021/08/21 10:14:34;;;;;;;;;5.67;5.00;;;;;25.68;51.04;101288.47;5059113;27;47454;-92
2021/08/21 10:17:01;;;;;;;;;4.67;4.00;;;;;25.82;51.02;101284.50;4969428;28;45342;-93
2021/08/21 10:19:27;;;;;;;;;7.67;7.33;;;;;25.94;49.78;101287.84;4985550;28;45298;-93
2021/08/21 10:21:56;;;;;;;;;5.33;5.00;;;;;26.01;50.08;101280.97;4974021;28;45712;-93
2021/08/21 10:24:37;;;;;;;;;5.33;5.33;;;;;26.19;50.14;101282.88;4983209;28;47215;-93
2021/08/21 10:27:19;;;;;;;;;4.67;4.67;;;;;26.36;49.13;101282.16;4963710;28;45485;-92
2021/08/21 10:30:14;;;;;;;;;6.00;6.00;;;;;26.51;48.67;101295.84;4904015;28;45763;-92
2021/08/21 10:32:44;;;;;;;;;6.00;5.33;;;;;26.59;48.60;101297.78;4937105;28;45317;-92
2021/08/21 10:35:12;;;;;;;;;7.33;5.33;;;;;26.61;48.71;101292.31;4950202;28;46290;-94
2021/08/21 10:37:43;;;;;;;;;6.00;6.00;;;;;26.68;48.88;101286.22;4934021;28;45369;-93
2021/08/21 10:40:44;;;;;;;;;7.00;7.00;;;;;26.88;48.35;101291.44;4932499;28;45421;-94
2021/08/21 10:43:10;;;;;;;;;4.50;4.50;;;;;27.00;47.56;101278.75;4995343;28;45810;-93
2021/08/21 10:45:46;;;;;;;;;7.00;6.00;;;;;27.06;47.50;101283.50;4999838;28;48098;-93
2021/08/21 10:48:13;;;;;;;;;5.50;5.00;;;;;27.15;47.29;101281.75;4976808;28;45445;-92
2021/08/21 10:50:56;;;;;;;;;5.00;5.00;;;;;27.35;47.23;101289.59;4994820;28;45386;-91
2021/08/21 10:53:25;;;;;;;;;7.50;7.00;;;;;27.54;46.73;101277.09;5001350;28;45448;-90
2021/08/21 10:55:52;;;;;;;;;7.67;6.00;;;;;27.74;46.77;101278.63;5002443;28;45841;-92
2021/08/21 10:58:19;;;;;;;;;5.00;5.00;;;;;27.94;46.10;101281.06;4980617;28;45670;-92
2021/08/21 11:00:45;;;;;;;;;4.33;4.33;;;;;28.21;46.09;101286.41;4995168;28;45509;-92
2021/08/21 11:03:22;;;;;;;;;4.33;4.33;;;;;28.44;45.73;101277.84;4987987;28;45534;-91
2021/08/21 11:06:03;;;;;;;;;4.33;4.33;;;;;28.64;45.35;101289.97;4991800;28;47042;-92
2021/08/21 11:08:30;;;;;;;;;5.00;5.00;;;;;28.80;45.23;101280.34;5007708;28;45130;-93
2021/08/21 11:11:07;;;;;;;;;6.00;5.00;;;;;28.90;45.31;101281.06;4991713;28;45399;-92
2021/08/21 11:14:14;;;;;;;;;3.67;3.67;;;;;28.99;43.84;101281.06;4983720;28;45622;-92
2021/08/21 11:16:46;;;;;;;;;3.67;3.67;;;;;28.98;43.94;101287.44;4975082;28;47140;-92
2021/08/21 11:19:13;;;;;;;;;4.33;4.33;;;;;28.94;44.21;101278.91;4934771;28;44753;-91
2021/08/21 11:21:39;;;;;;;;;4.67;3.67;;;;;28.92;44.07;101273.69;4933932;28;45393;-92
2021/08/21 11:24:27;;;;;;;;;7.00;6.00;;;;;28.94;43.34;101270.88;4959465;28;45711;-92
2021/08/21 11:27:24;;;;;;;;;5.00;5.00;;;;;28.94;43.89;101274.34;4946813;28;47456;-92